createdAt,value
2023-05-09T00:01:47.878Z,101292.80
2023-05-09T00:04:17.723Z,101292.40
2023-05-09T00:06:44.885Z,101295.42
2023-05-09T00:09:13.297Z,101290.25
2023-05-09T00:11:40.161Z,101290.36
2023-05-09T00:14:08.191Z,101290.62
2023-05-09T00:16:38.029Z,101287.61
2023-05-09T00:19:05.953Z,101287.80
2023-05-09T00:21:33.886Z,101289.29
2023-05-09T00:24:01.402Z,101290.77
2023-05-09T00:26:28.536Z,101291.39
2023-05-09T00:28:55.555Z,101293.58
2023-05-09T00:31:22.858Z,101291.09
2023-05-09T00:33:49.915Z,101291.11
2023-05-09T00:36:17.896Z,101290.73
2023-05-09T00:38:45.173Z,101291.81
2023-05-09T00:41:12.083Z,101289.11
2023-05-09T00:43:38.922Z,101288.84
2023-05-09T00:46:07.581Z,101285.08
2023-05-09T00:48:35.202Z,101285.23
2023-05-09T00:51:02.598Z,101286.82
2023-05-09T00:53:31.594Z,101287.80
2023-05-09T00:55:58.640Z,101286.30
2023-05-09T00:58:25.887Z,101286.55
2023-05-09T01:00:52.818Z,101285.94
2023-05-09T01:03:21.771Z,101283.55
2023-05-09T01:06:12.300Z,101286.45
2023-05-09T01:08:42.448Z,101289.78
2023-05-09T01:11:40.344Z,101290.14
2023-05-09T01:14:32.455Z,101286.45
2023-05-09T01:17:04.174Z,101291.85
2023-05-09T01:19:59.515Z,101287.71
2023-05-09T01:22:32.100Z,101286.61
2023-05-09T01:25:06.870Z,101284.05
2023-05-09T01:27:53.251Z,101281.78
2023-05-09T01:30:23.661Z,101282.95
2023-05-09T01:32:52.457Z,101286.77
2023-05-09T01:35:20.873Z,101288.20
2023-05-09T01:37:51.313Z,101283.77
2023-05-09T01:40:21.921Z,101283.91
2023-05-09T01:42:52.676Z,101285.46
2023-05-09T01:45:19.746Z,101283.86
2023-05-09T01:47:46.589Z,101282.69
2023-05-09T01:50:15.133Z,101281.56
2023-05-09T01:52:42.067Z,101281.42
2023-05-09T01:55:10.410Z,101287.88
2023-05-09T01:57:39.095Z,101288.85
2023-05-09T02:00:08.555Z,101287.55
2023-05-09T02:02:40.463Z,101288.19
2023-05-09T02:05:09.928Z,101288.73
2023-05-09T02:07:37.029Z,101290.09
2023-05-09T02:10:05.103Z,101288.88
2023-05-09T02:12:32.593Z,101286.30
2023-05-09T02:14:59.743Z,101288.42
2023-05-09T02:17:27.089Z,101286.61
2023-05-09T02:19:54.037Z,101287.17
2023-05-09T02:22:21.145Z,101284.23
2023-05-09T02:24:48.217Z,101286.64
2023-05-09T02:27:15.337Z,101285.16
2023-05-09T02:29:46.276Z,101288.17
2023-05-09T02:32:19.528Z,101288.60
2023-05-09T02:34:47.135Z,101285.60
2023-05-09T02:37:14.022Z,101287.41
2023-05-09T02:39:41.133Z,101283.52
2023-05-09T02:42:12.270Z,101284.75
2023-05-09T02:44:39.294Z,101288.87
2023-05-09T02:47:07.028Z,101287.86
2023-05-09T02:49:34.238Z,101290.39
2023-05-09T02:52:02.339Z,101291.05
2023-05-09T02:54:29.892Z,101293.05
2023-05-09T02:56:56.969Z,101293.33
2023-05-09T02:59:23.868Z,101301.08
2023-05-09T03:01:51.431Z,101302.56
2023-05-09T03:04:19.864Z,101301.53
2023-05-09T03:06:47.068Z,101303.80
2023-05-09T03:09:14.117Z,101304.71
2023-05-09T03:11:41.149Z,101307.77
2023-05-09T03:14:13.330Z,101309.71
2023-05-09T03:16:40.476Z,101312.11
2023-05-09T03:19:12.111Z,101313.96
2023-05-09T03:21:42.544Z,101315.27
2023-05-09T03:24:10.536Z,101316.52
2023-05-09T03:26:37.500Z,101319.83
2023-05-09T03:29:04.408Z,101319.90
2023-05-09T03:31:32.150Z,101318.48
2023-05-09T03:33:59.249Z,101323.00
2023-05-09T03:36:26.473Z,101325.27
2023-05-09T03:38:54.677Z,101326.09
2023-05-09T03:41:21.768Z,101328.29
2023-05-09T03:43:48.958Z,101326.67
2023-05-09T03:46:16.156Z,101327.42
2023-05-09T03:48:44.563Z,101330.55
2023-05-09T03:51:11.854Z,101332.89
2023-05-09T03:53:39.604Z,101333.36
2023-05-09T03:56:07.938Z,101335.08
2023-05-09T03:58:38.846Z,101335.41
2023-05-09T04:01:08.127Z,101335.82
2023-05-09T04:03:35.112Z,101339.39
2023-05-09T04:06:02.468Z,101335.07
2023-05-09T04:08:36.330Z,101334.63
